sensor_id;sensor_type;location;lat;lon;timestamp;temperature;humidity
62464;SHT31;48512;48.552;9.380;2023-05-10T00:01:17;15.05;85.08
62464;SHT31;48512;48.552;9.380;2023-05-10T00:03:43;14.98;84.68
62464;SHT31;48512;48.552;9.380;2023-05-10T00:06:09;14.71;86.07
62464;SHT31;48512;48.552;9.380;2023-05-10T00:08:35;14.72;87.09
62464;SHT31;48512;48.552;9.380;2023-05-10T00:11:01;14.87;86.18
62464;SHT31;48512;48.552;9.380;2023-05-10T00:13:27;14.78;86.90
62464;SHT31;48512;48.552;9.380;2023-05-10T00:15:53;14.68;86.67
62464;SHT31;48512;48.552;9.380;2023-05-10T00:18:20;14.57;86.32
62464;SHT31;48512;48.552;9.380;2023-05-10T00:20:46;14.58;86.58
62464;SHT31;48512;48.552;9.380;2023-05-10T00:23:12;14.58;87.74
62464;SHT31;48512;48.552;9.380;2023-05-10T00:25:38;14.67;87.54
62464;SHT31;48512;48.552;9.380;2023-05-10T00:28:04;14.67;87.07
62464;SHT31;48512;48.552;9.380;2023-05-10T00:30:30;14.51;87.73
62464;SHT31;48512;48.552;9.380;2023-05-10T00:32:56;14.50;88.25
62464;SHT31;48512;48.552;9.380;2023-05-10T00:35:23;14.50;88.69
62464;SHT31;48512;48.552;9.380;2023-05-10T00:37:49;14.24;89.64
62464;SHT31;48512;48.552;9.380;2023-05-10T00:40:15;14.30;89.93
62464;SHT31;48512;48.552;9.380;2023-05-10T00:42:45;14.40;89.00
62464;SHT31;48512;48.552;9.380;2023-05-10T00:45:11;14.17;90.14
62464;SHT31;48512;48.552;9.380;2023-05-10T00:47:37;14.41;88.83
62464;SHT31;48512;48.552;9.380;2023-05-10T00:50:04;14.16;90.41
62464;SHT31;48512;48.552;9.380;2023-05-10T00:52:31;14.19;89.79
62464;SHT31;48512;48.552;9.380;2023-05-10T00:54:58;14.09;90.30
62464;SHT31;48512;48.552;9.380;2023-05-10T00:57:24;14.20;90.59
62464;SHT31;48512;48.552;9.380;2023-05-10T00:59:51;14.10;91.06
62464;SHT31;48512;48.552;9.380;2023-05-10T01:02:18;14.36;91.03
62464;SHT31;48512;48.552;9.380;2023-05-10T01:04:44;14.21;90.60
62464;SHT31;48512;48.552;9.380;2023-05-10T01:07:10;14.21;90.36
62464;SHT31;48512;48.552;9.380;2023-05-10T01:09:36;14.33;90.32
62464;SHT31;48512;48.552;9.380;2023-05-10T01:12:03;14.38;89.97
62464;SHT31;48512;48.552;9.380;2023-05-10T01:14:33;14.16;89.76
62464;SHT31;48512;48.552;9.380;2023-05-10T01:17:00;14.29;89.55
62464;SHT31;48512;48.552;9.380;2023-05-10T01:19:29;14.08;90.41
62464;SHT31;48512;48.552;9.380;2023-05-10T01:22:08;14.10;90.61
62464;SHT31;48512;48.552;9.380;2023-05-10T01:25:03;14.02;90.82
62464;SHT31;48512;48.552;9.380;2023-05-10T01:30:57;14.17;89.87
62464;SHT31;48512;48.552;9.380;2023-05-10T01:36:31;14.21;89.34
62464;SHT31;48512;48.552;9.380;2023-05-10T01:39:08;14.12;89.96
62464;SHT31;48512;48.552;9.380;2023-05-10T01:41:47;14.14;89.57
62464;SHT31;48512;48.552;9.380;2023-05-10T01:44:18;13.98;90.68
62464;SHT31;48512;48.552;9.380;2023-05-10T01:46:52;13.93;90.62
62464;SHT31;48512;48.552;9.380;2023-05-10T01:49:24;13.89;90.88
62464;SHT31;48512;48.552;9.380;2023-05-10T01:51:54;13.89;91.94
62464;SHT31;48512;48.552;9.380;2023-05-10T01:54:24;13.95;91.19
62464;SHT31;48512;48.552;9.380;2023-05-10T01:56:55;14.03;90.95
62464;SHT31;48512;48.552;9.380;2023-05-10T01:59:29;14.20;89.35
62464;SHT31;48512;48.552;9.380;2023-05-10T02:01:57;14.14;89.55
62464;SHT31;48512;48.552;9.380;2023-05-10T02:04:25;14.01;89.46
62464;SHT31;48512;48.552;9.380;2023-05-10T02:06:53;13.89;89.69
62464;SHT31;48512;48.552;9.380;2023-05-10T02:09:21;13.76;90.55
62464;SHT31;48512;48.552;9.380;2023-05-10T02:11:48;14.08;89.21
62464;SHT31;48512;48.552;9.380;2023-05-10T02:14:15;13.93;90.14
62464;SHT31;48512;48.552;9.380;2023-05-10T02:16:43;13.92;90.52
62464;SHT31;48512;48.552;9.380;2023-05-10T02:19:10;13.95;90.40
62464;SHT31;48512;48.552;9.380;2023-05-10T02:21:39;13.99;88.92
62464;SHT31;48512;48.552;9.380;2023-05-10T02:24:06;13.86;89.41
62464;SHT31;48512;48.552;9.380;2023-05-10T02:26:34;13.82;89.52
62464;SHT31;48512;48.552;9.380;2023-05-10T02:29:02;13.74;90.76
62464;SHT31;48512;48.552;9.380;2023-05-10T02:31:33;13.92;89.46
62464;SHT31;48512;48.552;9.380;2023-05-10T02:33:59;13.87;89.19
62464;SHT31;48512;48.552;9.380;2023-05-10T02:36:27;13.86;89.23
62464;SHT31;48512;48.552;9.380;2023-05-10T02:38:53;13.98;88.43
62464;SHT31;48512;48.552;9.380;2023-05-10T02:41:20;13.89;89.18
62464;SHT31;48512;48.552;9.380;2023-05-10T02:43:52;13.86;88.75
62464;SHT31;48512;48.552;9.380;2023-05-10T02:46:19;13.78;88.34
62464;SHT31;48512;48.552;9.380;2023-05-10T02:48:45;13.71;88.38
62464;SHT31;48512;48.552;9.380;2023-05-10T02:51:12;13.66;88.71
62464;SHT31;48512;48.552;9.380;2023-05-10T02:53:42;13.92;87.90
62464;SHT31;48512;48.552;9.380;2023-05-10T02:56:13;13.76;88.74
62464;SHT31;48512;48.552;9.380;2023-05-10T02:58:41;13.87;88.25
62464;SHT31;48512;48.552;9.380;2023-05-10T03:01:07;13.85;88.89
62464;SHT31;48512;48.552;9.380;2023-05-10T03:03:33;14.01;88.18
62464;SHT31;48512;48.552;9.380;2023-05-10T03:05:59;13.85;88.50
62464;SHT31;48512;48.552;9.380;2023-05-10T03:08:26;13.64;89.13
62464;SHT31;48512;48.552;9.380;2023-05-10T03:16:24;13.75;87.39
62464;SHT31;48512;48.552;9.380;2023-05-10T03:19:09;13.57;88.50
62464;SHT31;48512;48.552;9.380;2023-05-10T03:21:40;13.62;88.35
62464;SHT31;48512;48.552;9.380;2023-05-10T03:24:08;13.55;88.46
62464;SHT31;48512;48.552;9.380;2023-05-10T03:26:38;13.37;88.71
62464;SHT31;48512;48.552;9.380;2023-05-10T03:29:14;13.58;87.90
62464;SHT31;48512;48.552;9.380;2023-05-10T03:31:40;13.61;88.07
62464;SHT31;48512;48.552;9.380;2023-05-10T03:34:07;13.44;88.42
62464;SHT31;48512;48.552;9.380;2023-05-10T03:36:33;13.28;88.61
62464;SHT31;48512;48.552;9.380;2023-05-10T03:38:59;13.31;88.40
62464;SHT31;48512;48.552;9.380;2023-05-10T03:41:26;13.36;88.26
62464;SHT31;48512;48.552;9.380;2023-05-10T03:43:53;13.21;88.92
62464;SHT31;48512;48.552;9.380;2023-05-10T03:46:19;13.33;88.87
62464;SHT31;48512;48.552;9.380;2023-05-10T03:48:45;13.45;88.59
62464;SHT31;48512;48.552;9.380;2023-05-10T03:51:11;13.66;87.13
62464;SHT31;48512;48.552;9.380;2023-05-10T03:53:39;13.28;88.45
62464;SHT31;48512;48.552;9.380;2023-05-10T03:56:05;13.51;87.63
62464;SHT31;48512;48.552;9.380;2023-05-10T03:58:31;13.11;89.52
62464;SHT31;48512;48.552;9.380;2023-05-10T04:00:58;13.38;88.78
62464;SHT31;48512;48.552;9.380;2023-05-10T04:03:24;13.36;88.89
62464;SHT31;48512;48.552;9.380;2023-05-10T04:06:01;13.10;90.21
62464;SHT31;48512;48.552;9.380;2023-05-10T04:08:27;13.06;89.71
62464;SHT31;48512;48.552;9.380;2023-05-10T04:10:54;13.03;90.45
62464;SHT31;48512;48.552;9.380;2023-05-10T04:13:21;13.11;90.51
62464;SHT31;48512;48.552;9.380;2023-05-10T04:15:47;13.13;90.17
62464;SHT31;48512;48.552;9.380;2023-05-10T04:18:13;13.00;90.85
62464;SHT31;48512;48.552;9.380;2023-05-10T04:20:39;13.14;90.43
62464;SHT31;48512;48.552;9.380;2023-05-10T04:23:05;13.18;90.31
62464;SHT31;48512;48.552;9.380;2023-05-10T04:25:34;13.55;88.79
62464;SHT31;48512;48.552;9.380;2023-05-10T04:28:01;13.24;89.94
62464;SHT31;48512;48.552;9.380;2023-05-10T04:30:27;13.28;88.87
62464;SHT31;48512;48.552;9.380;2023-05-10T04:32:55;13.37;88.99
62464;SHT31;48512;48.552;9.380;2023-05-10T04:35:21;12.99;89.95
62464;SHT31;48512;48.552;9.380;2023-05-10T04:37:47;13.00;90.20
62464;SHT31;48512;48.552;9.380;2023-05-10T04:40:13;13.28;88.75
62464;SHT31;48512;48.552;9.380;2023-05-10T04:42:40;13.14;89.18
62464;SHT31;48512;48.552;9.380;2023-05-10T04:45:07;13.27;89.51
62464;SHT31;48512;48.552;9.380;2023-05-10T04:47:33;13.28;88.76
62464;SHT31;48512;48.552;9.380;2023-05-10T04:49:59;13.21;88.97
62464;SHT31;48512;48.552;9.380;2023-05-10T04:52:25;13.21;88.52
62464;SHT31;48512;48.552;9.380;2023-05-10T04:54:52;13.24;88.27
62464;SHT31;48512;48.552;9.380;2023-05-10T04:57:18;13.28;87.97
62464;SHT31;48512;48.552;9.380;2023-05-10T04:59:44;13.40;88.52
62464;SHT31;48512;48.552;9.380;2023-05-10T05:02:10;13.75;89.22
62464;SHT31;48512;48.552;9.380;2023-05-10T05:04:36;14.08;89.51
62464;SHT31;48512;48.552;9.380;2023-05-10T05:07:02;13.79;87.32
62464;SHT31;48512;48.552;9.380;2023-05-10T05:09:28;13.89;86.52
62464;SHT31;48512;48.552;9.380;2023-05-10T05:11:55;13.59;86.72
62464;SHT31;48512;48.552;9.380;2023-05-10T05:14:21;13.66;86.95
62464;SHT31;48512;48.552;9.380;2023-05-10T05:16:47;13.48;87.39
62464;SHT31;48512;48.552;9.380;2023-05-10T05:19:13;13.76;86.65
62464;SHT31;48512;48.552;9.380;2023-05-10T05:21:39;13.66;86.39
62464;SHT31;48512;48.552;9.380;2023-05-10T05:24:06;13.66;86.78
62464;SHT31;48512;48.552;9.380;2023-05-10T05:26:32;13.44;86.33
62464;SHT31;48512;48.552;9.380;2023-05-10T05:28:59;13.62;87.82
62464;SHT31;48512;48.552;9.380;2023-05-10T05:31:25;13.61;88.01
62464;SHT31;48512;48.552;9.380;2023-05-10T05:33:51;13.58;87.27
62464;SHT31;48512;48.552;9.380;2023-05-10T05:36:17;13.83;86.26
62464;SHT31;48512;48.552;9.380;2023-05-10T05:38:43;13.62;86.98
62464;SHT31;48512;48.552;9.380;2023-05-10T05:41:09;13.78;86.24
62464;SHT31;48512;48.552;9.380;2023-05-10T05:43:35;13.71;86.51
62464;SHT31;48512;48.552;9.380;2023-05-10T05:46:01;13.53;87.13
62464;SHT31;48512;48.552;9.380;2023-05-10T05:48:29;13.59;87.66
62464;SHT31;48512;48.552;9.380;2023-05-10T05:50:56;13.50;87.99
62464;SHT31;48512;48.552;9.380;2023-05-10T05:53:23;13.69;86.98
62464;SHT31;48512;48.552;9.380;2023-05-10T05:55:53;13.81;87.02
62464;SHT31;48512;48.552;9.380;2023-05-10T05:58:21;13.72;87.04
62464;SHT31;48512;48.552;9.380;2023-05-10T06:00:47;13.57;87.94
62464;SHT31;48512;48.552;9.380;2023-05-10T06:03:13;13.68;87.16
62464;SHT31;48512;48.552;9.380;2023-05-10T06:05:40;13.95;85.87
62464;SHT31;48512;48.552;9.380;2023-05-10T06:08:06;13.75;86.74
62464;SHT31;48512;48.552;9.380;2023-05-10T06:10:32;13.82;86.43
62464;SHT31;48512;48.552;9.380;2023-05-10T06:12:58;13.96;85.73
62464;SHT31;48512;48.552;9.380;2023-05-10T06:15:24;13.72;87.52
62464;SHT31;48512;48.552;9.380;2023-05-10T06:17:51;13.64;87.40
62464;SHT31;48512;48.552;9.380;2023-05-10T06:20:17;13.83;86.73
62464;SHT31;48512;48.552;9.380;2023-05-10T06:22:43;13.92;86.32
62464;SHT31;48512;48.552;9.380;2023-05-10T06:25:10;13.76;86.66
62464;SHT31;48512;48.552;9.380;2023-05-10T06:27:37;13.87;86.59
62464;SHT31;48512;48.552;9.380;2023-05-10T06:30:04;13.76;86.74
62464;SHT31;48512;48.552;9.380;2023-05-10T06:32:31;13.82;86.64
62464;SHT31;48512;48.552;9.380;2023-05-10T06:34:57;13.65;87.11
62464;SHT31;48512;48.552;9.380;2023-05-10T06:37:23;13.72;86.89
62464;SHT31;48512;48.552;9.380;2023-05-10T06:39:49;13.99;85.79
62464;SHT31;48512;48.552;9.380;2023-05-10T06:42:15;13.98;86.58
62464;SHT31;48512;48.552;9.380;2023-05-10T06:44:45;14.09;85.22
62464;SHT31;48512;48.552;9.380;2023-05-10T06:47:11;14.21;85.37
62464;SHT31;48512;48.552;9.380;2023-05-10T06:49:37;14.06;85.83
62464;SHT31;48512;48.552;9.380;2023-05-10T06:52:04;14.02;84.56
62464;SHT31;48512;48.552;9.380;2023-05-10T06:54:30;13.99;84.76
62464;SHT31;48512;48.552;9.380;2023-05-10T06:56:56;13.78;85.55
62464;SHT31;48512;48.552;9.380;2023-05-10T06:59:22;13.95;85.35
62464;SHT31;48512;48.552;9.380;2023-05-10T07:01:48;13.95;84.76
62464;SHT31;48512;48.552;9.380;2023-05-10T07:04:14;13.90;85.54
62464;SHT31;48512;48.552;9.380;2023-05-10T07:06:40;13.95;86.20
62464;SHT31;48512;48.552;9.380;2023-05-10T07:09:07;14.33;83.94
62464;SHT31;48512;48.552;9.380;2023-05-10T07:11:33;14.19;83.88
62464;SHT31;48512;48.552;9.380;2023-05-10T07:13:59;14.37;83.31
62464;SHT31;48512;48.552;9.380;2023-05-10T07:16:26;14.20;82.92
62464;SHT31;48512;48.552;9.380;2023-05-10T07:18:52;14.37;82.83
62464;SHT31;48512;48.552;9.380;2023-05-10T07:21:19;14.40;82.95
62464;SHT31;48512;48.552;9.380;2023-05-10T07:23:45;14.29;83.09
62464;SHT31;48512;48.552;9.380;2023-05-10T07:26:11;14.19;84.16
62464;SHT31;48512;48.552;9.380;2023-05-10T07:28:38;14.31;84.63
62464;SHT31;48512;48.552;9.380;2023-05-10T07:31:04;14.37;84.10
62464;SHT31;48512;48.552;9.380;2023-05-10T07:33:31;14.37;83.04
62464;SHT31;48512;48.552;9.380;2023-05-10T07:35:57;14.57;82.42
62464;SHT31;48512;48.552;9.380;2023-05-10T07:38:23;14.36;82.81
62464;SHT31;48512;48.552;9.380;2023-05-10T07:40:49;14.58;82.40
62464;SHT31;48512;48.552;9.380;2023-05-10T07:43:15;14.63;82.29
62464;SHT31;48512;48.552;9.380;2023-05-10T07:45:41;14.68;82.76
62464;SHT31;48512;48.552;9.380;2023-05-10T07:48:08;14.50;81.50
62464;SHT31;48512;48.552;9.380;2023-05-10T07:50:34;14.57;82.03
62464;SHT31;48512;48.552;9.380;2023-05-10T07:53:00;14.74;80.48
62464;SHT31;48512;48.552;9.380;2023-05-10T07:55:26;14.56;81.45
62464;SHT31;48512;48.552;9.380;2023-05-10T07:57:52;14.61;81.12
62464;SHT31;48512;48.552;9.380;2023-05-10T08:00:19;14.57;81.39
62464;SHT31;48512;48.552;9.380;2023-05-10T08:02:46;14.65;80.76
62464;SHT31;48512;48.552;9.380;2023-05-10T08:05:12;14.72;80.94
62464;SHT31;48512;48.552;9.380;2023-05-10T08:07:39;14.99;79.55
62464;SHT31;48512;48.552;9.380;2023-05-10T08:10:05;15.05;79.85
62464;SHT31;48512;48.552;9.380;2023-05-10T08:12:32;15.00;80.20
62464;SHT31;48512;48.552;9.380;2023-05-10T08:14:58;14.91;79.84
62464;SHT31;48512;48.552;9.380;2023-05-10T08:17:24;14.75;80.77
62464;SHT31;48512;48.552;9.380;2023-05-10T08:19:50;14.85;80.36
62464;SHT31;48512;48.552;9.380;2023-05-10T08:22:16;15.06;79.15
62464;SHT31;48512;48.552;9.380;2023-05-10T08:24:43;15.25;77.83
62464;SHT31;48512;48.552;9.380;2023-05-10T08:27:09;14.91;79.11
62464;SHT31;48512;48.552;9.380;2023-05-10T08:29:35;15.18;78.47
62464;SHT31;48512;48.552;9.380;2023-05-10T08:32:01;15.26;78.19
62464;SHT31;48512;48.552;9.380;2023-05-10T08:34:27;15.27;77.52
62464;SHT31;48512;48.552;9.380;2023-05-10T08:36:53;15.25;78.24
62464;SHT31;48512;48.552;9.380;2023-05-10T08:39:19;15.40;78.14
62464;SHT31;48512;48.552;9.380;2023-05-10T08:41:46;15.43;77.41
62464;SHT31;48512;48.552;9.380;2023-05-10T08:44:14;15.40;77.65
62464;SHT31;48512;48.552;9.380;2023-05-10T08:46:41;15.36;79.36
62464;SHT31;48512;48.552;9.380;2023-05-10T08:49:13;15.58;77.77
62464;SHT31;48512;48.552;9.380;2023-05-10T08:51:47;15.98;75.67
62464;SHT31;48512;48.552;9.380;2023-05-10T08:54:15;15.87;76.71
62464;SHT31;48512;48.552;9.380;2023-05-10T08:56:41;15.84;76.33
62464;SHT31;48512;48.552;9.380;2023-05-10T08:59:08;15.98;77.38
62464;SHT31;48512;48.552;9.380;2023-05-10T09:01:35;16.05;77.54
62464;SHT31;48512;48.552;9.380;2023-05-10T09:04:02;16.21;74.57
62464;SHT31;48512;48.552;9.380;2023-05-10T09:06:30;16.22;75.65
62464;SHT31;48512;48.552;9.380;2023-05-10T09:08:56;16.33;74.01
62464;SHT31;48512;48.552;9.380;2023-05-10T09:11:23;16.16;74.34
62464;SHT31;48512;48.552;9.380;2023-05-10T09:13:50;16.06;76.25
62464;SHT31;48512;48.552;9.380;2023-05-10T09:16:17;16.25;75.20
62464;SHT31;48512;48.552;9.380;2023-05-10T09:18:43;16.33;73.99
62464;SHT31;48512;48.552;9.380;2023-05-10T09:21:09;16.45;74.16
62464;SHT31;48512;48.552;9.380;2023-05-10T09:23:36;16.57;74.03
62464;SHT31;48512;48.552;9.380;2023-05-10T09:26:06;16.59;73.26
62464;SHT31;48512;48.552;9.380;2023-05-10T09:28:32;16.70;73.89
62464;SHT31;48512;48.552;9.380;2023-05-10T09:30:59;16.67;74.67
62464;SHT31;48512;48.552;9.380;2023-05-10T09:33:25;16.64;74.56
62464;SHT31;48512;48.552;9.380;2023-05-10T09:35:51;16.63;74.63
62464;SHT31;48512;48.552;9.380;2023-05-10T09:38:17;16.77;74.78
62464;SHT31;48512;48.552;9.380;2023-05-10T09:40:52;16.66;74.98
62464;SHT31;48512;48.552;9.380;2023-05-10T09:43:22;16.63;75.52
62464;SHT31;48512;48.552;9.380;2023-05-10T09:45:48;16.61;75.59
62464;SHT31;48512;48.552;9.380;2023-05-10T09:48:17;16.77;74.44
62464;SHT31;48512;48.552;9.380;2023-05-10T09:50:43;16.74;74.74
62464;SHT31;48512;48.552;9.380;2023-05-10T09:53:14;16.80;74.12
62464;SHT31;48512;48.552;9.380;2023-05-10T09:55:42;16.81;74.31
62464;SHT31;48512;48.552;9.380;2023-05-10T09:58:11;17.07;72.50
62464;SHT31;48512;48.552;9.380;2023-05-10T10:00:46;17.25;72.08
62464;SHT31;48512;48.552;9.380;2023-05-10T10:03:19;17.38;72.59
62464;SHT31;48512;48.552;9.380;2023-05-10T10:05:47;17.43;71.13
62464;SHT31;48512;48.552;9.380;2023-05-10T10:08:14;17.53;71.27
62464;SHT31;48512;48.552;9.380;2023-05-10T10:10:41;17.63;70.13
62464;SHT31;48512;48.552;9.380;2023-05-10T10:13:10;17.67;69.38
62464;SHT31;48512;48.552;9.380;2023-05-10T10:15:36;17.86;69.99
62464;SHT31;48512;48.552;9.380;2023-05-10T10:18:03;17.93;69.00
62464;SHT31;48512;48.552;9.380;2023-05-10T10:20:31;18.04;68.34
62464;SHT31;48512;48.552;9.380;2023-05-10T10:22:57;18.00;67.04
62464;SHT31;48512;48.552;9.380;2023-05-10T10:25:24;18.08;67.20
62464;SHT31;48512;48.552;9.380;2023-05-10T10:35:39;18.58;65.40
62464;SHT31;48512;48.552;9.380;2023-05-10T10:38:08;18.58;63.64
62464;SHT31;48512;48.552;9.380;2023-05-10T10:40:34;18.44;64.35
62464;SHT31;48512;48.552;9.380;2023-05-10T10:43:26;18.38;64.89
62464;SHT31;48512;48.552;9.380;2023-05-10T10:46:17;18.42;64.55
62464;SHT31;48512;48.552;9.380;2023-05-10T10:49:07;18.22;65.05
62464;SHT31;48512;48.552;9.380;2023-05-10T10:51:38;18.14;66.74
62464;SHT31;48512;48.552;9.380;2023-05-10T10:54:10;18.07;66.94
62464;SHT31;48512;48.552;9.380;2023-05-10T10:56:37;17.94;66.90
62464;SHT31;48512;48.552;9.380;2023-05-10T10:59:03;18.01;67.43
62464;SHT31;48512;48.552;9.380;2023-05-10T11:01:33;17.59;67.76
62464;SHT31;48512;48.552;9.380;2023-05-10T11:06:34;17.14;69.48
62464;SHT31;48512;48.552;9.380;2023-05-10T11:09:08;17.10;68.57
62464;SHT31;48512;48.552;9.380;2023-05-10T11:11:35;16.98;70.49
62464;SHT31;48512;48.552;9.380;2023-05-10T11:14:04;17.12;70.52
62464;SHT31;48512;48.552;9.380;2023-05-10T11:16:44;17.29;68.69
62464;SHT31;48512;48.552;9.380;2023-05-10T11:19:11;17.54;68.88
62464;SHT31;48512;48.552;9.380;2023-05-10T11:22:11;17.42;70.59
62464;SHT31;48512;48.552;9.380;2023-05-10T11:24:36;17.62;70.11
62464;SHT31;48512;48.552;9.380;2023-05-10T11:27:02;17.28;69.07
62464;SHT31;48512;48.552;9.380;2023-05-10T11:29:29;17.31;69.22
62464;SHT31;48512;48.552;9.380;2023-05-10T11:31:59;17.35;69.43
62464;SHT31;48512;48.552;9.380;2023-05-10T11:34:26;17.53;68.38
62464;SHT31;48512;48.552;9.380;2023-05-10T11:36:54;17.28;68.93
62464;SHT31;48512;48.552;9.380;2023-05-10T11:39:21;17.45;68.00
62464;SHT31;48512;48.552;9.380;2023-05-10T11:41:48;17.22;68.88
62464;SHT31;48512;48.552;9.380;2023-05-10T11:44:15;16.95;72.63
62464;SHT31;48512;48.552;9.380;2023-05-10T11:46:41;16.81;73.28
62464;SHT31;48512;48.552;9.380;2023-05-10T11:49:07;16.45;74.48
62464;SHT31;48512;48.552;9.380;2023-05-10T11:51:34;16.32;74.65
62464;SHT31;48512;48.552;9.380;2023-05-10T11:54:09;16.42;74.33
62464;SHT31;48512;48.552;9.380;2023-05-10T11:56:37;16.38;72.54
62464;SHT31;48512;48.552;9.380;2023-05-10T11:59:04;16.05;73.51
62464;SHT31;48512;48.552;9.380;2023-05-10T12:01:30;15.88;73.92
62464;SHT31;48512;48.552;9.380;2023-05-10T12:03:57;15.92;74.06
62464;SHT31;48512;48.552;9.380;2023-05-10T12:06:26;16.00;73.89
62464;SHT31;48512;48.552;9.380;2023-05-10T12:08:53;16.34;71.64
62464;SHT31;48512;48.552;9.380;2023-05-10T12:11:19;16.15;71.47
62464;SHT31;48512;48.552;9.380;2023-05-10T12:13:47;16.11;75.87
62464;SHT31;48512;48.552;9.380;2023-05-10T12:18:45;17.14;74.73
62464;SHT31;48512;48.552;9.380;2023-05-10T12:21:12;17.28;74.83
62464;SHT31;48512;48.552;9.380;2023-05-10T12:23:39;17.53;73.76
62464;SHT31;48512;48.552;9.380;2023-05-10T12:26:05;17.65;72.67
62464;SHT31;48512;48.552;9.380;2023-05-10T12:28:32;17.69;70.94
62464;SHT31;48512;48.552;9.380;2023-05-10T12:30:59;17.60;68.19
62464;SHT31;48512;48.552;9.380;2023-05-10T12:33:25;16.95;70.08
62464;SHT31;48512;48.552;9.380;2023-05-10T12:35:54;16.47;70.74
62464;SHT31;48512;48.552;9.380;2023-05-10T12:40:52;16.59;70.47
62464;SHT31;48512;48.552;9.380;2023-05-10T12:43:18;16.36;71.41
62464;SHT31;48512;48.552;9.380;2023-05-10T12:45:44;16.29;71.77
62464;SHT31;48512;48.552;9.380;2023-05-10T12:48:14;16.39;72.17
62464;SHT31;48512;48.552;9.380;2023-05-10T12:50:40;16.53;71.44
62464;SHT31;48512;48.552;9.380;2023-05-10T12:53:07;16.78;71.11
62464;SHT31;48512;48.552;9.380;2023-05-10T12:55:33;16.70;70.69
62464;SHT31;48512;48.552;9.380;2023-05-10T12:57:59;16.47;71.84
62464;SHT31;48512;48.552;9.380;2023-05-10T13:00:25;16.67;72.03
62464;SHT31;48512;48.552;9.380;2023-05-10T13:02:51;16.59;70.35
62464;SHT31;48512;48.552;9.380;2023-05-10T13:05:18;16.26;71.06
62464;SHT31;48512;48.552;9.380;2023-05-10T13:07:44;16.00;70.88
62464;SHT31;48512;48.552;9.380;2023-05-10T13:10:10;16.08;72.60
62464;SHT31;48512;48.552;9.380;2023-05-10T13:12:37;16.28;72.09
62464;SHT31;48512;48.552;9.380;2023-05-10T13:15:03;16.50;71.79
62464;SHT31;48512;48.552;9.380;2023-05-10T13:17:30;16.60;70.42
62464;SHT31;48512;48.552;9.380;2023-05-10T13:19:56;16.63;71.38
62464;SHT31;48512;48.552;9.380;2023-05-10T13:22:22;16.71;70.98
62464;SHT31;48512;48.552;9.380;2023-05-10T13:24:48;16.73;71.27
62464;SHT31;48512;48.552;9.380;2023-05-10T13:27:14;16.89;71.75
62464;SHT31;48512;48.552;9.380;2023-05-10T13:29:41;16.88;71.05
62464;SHT31;48512;48.552;9.380;2023-05-10T13:32:07;16.98;68.81
62464;SHT31;48512;48.552;9.380;2023-05-10T13:34:33;16.98;70.38
62464;SHT31;48512;48.552;9.380;2023-05-10T13:37:01;16.95;69.66
62464;SHT31;48512;48.552;9.380;2023-05-10T13:39:27;17.28;68.25
62464;SHT31;48512;48.552;9.380;2023-05-10T13:41:56;16.77;69.95
62464;SHT31;48512;48.552;9.380;2023-05-10T13:44:22;16.80;70.59
62464;SHT31;48512;48.552;9.380;2023-05-10T13:46:49;17.08;69.73
62464;SHT31;48512;48.552;9.380;2023-05-10T13:49:15;16.98;69.57
62464;SHT31;48512;48.552;9.380;2023-05-10T13:51:42;16.84;70.77
62464;SHT31;48512;48.552;9.380;2023-05-10T13:54:08;17.11;70.30
62464;SHT31;48512;48.552;9.380;2023-05-10T13:56:34;17.00;69.19
62464;SHT31;48512;48.552;9.380;2023-05-10T13:59:01;17.03;69.74
62464;SHT31;48512;48.552;9.380;2023-05-10T14:01:27;17.05;71.01
62464;SHT31;48512;48.552;9.380;2023-05-10T14:03:53;17.28;68.82
62464;SHT31;48512;48.552;9.380;2023-05-10T14:06:20;17.12;68.43
62464;SHT31;48512;48.552;9.380;2023-05-10T14:08:46;17.25;67.61
62464;SHT31;48512;48.552;9.380;2023-05-10T14:11:12;17.47;67.44
62464;SHT31;48512;48.552;9.380;2023-05-10T14:13:38;17.25;66.30
62464;SHT31;48512;48.552;9.380;2023-05-10T14:16:05;17.46;67.27
62464;SHT31;48512;48.552;9.380;2023-05-10T14:18:31;17.29;67.08
62464;SHT31;48512;48.552;9.380;2023-05-10T14:20:57;17.38;67.40
62464;SHT31;48512;48.552;9.380;2023-05-10T14:23:24;17.63;65.25
62464;SHT31;48512;48.552;9.380;2023-05-10T14:25:51;17.38;66.64
62464;SHT31;48512;48.552;9.380;2023-05-10T14:28:18;17.40;66.82
62464;SHT31;48512;48.552;9.380;2023-05-10T14:30:45;17.66;66.39
62464;SHT31;48512;48.552;9.380;2023-05-10T14:33:11;17.65;65.23
62464;SHT31;48512;48.552;9.380;2023-05-10T14:35:37;17.59;66.31
62464;SHT31;48512;48.552;9.380;2023-05-10T14:38:03;17.63;67.85
62464;SHT31;48512;48.552;9.380;2023-05-10T14:40:30;17.81;72.69
62464;SHT31;48512;48.552;9.380;2023-05-10T14:42:56;18.62;68.87
62464;SHT31;48512;48.552;9.380;2023-05-10T14:45:22;18.65;68.80
62464;SHT31;48512;48.552;9.380;2023-05-10T14:47:49;18.76;67.96
62464;SHT31;48512;48.552;9.380;2023-05-10T14:50:16;18.80;67.37
62464;SHT31;48512;48.552;9.380;2023-05-10T14:52:45;19.17;63.28
62464;SHT31;48512;48.552;9.380;2023-05-10T14:55:11;19.04;62.13
62464;SHT31;48512;48.552;9.380;2023-05-10T14:57:37;18.89;63.02
62464;SHT31;48512;48.552;9.380;2023-05-10T15:00:04;18.79;64.95
62464;SHT31;48512;48.552;9.380;2023-05-10T15:02:31;18.90;64.91
62464;SHT31;48512;48.552;9.380;2023-05-10T15:04:57;19.10;64.38
62464;SHT31;48512;48.552;9.380;2023-05-10T15:07:23;19.25;64.14
62464;SHT31;48512;48.552;9.380;2023-05-10T15:09:50;19.34;63.35
62464;SHT31;48512;48.552;9.380;2023-05-10T15:12:18;19.15;61.74
62464;SHT31;48512;48.552;9.380;2023-05-10T15:14:44;18.90;61.87
62464;SHT31;48512;48.552;9.380;2023-05-10T15:17:10;18.39;61.82
62464;SHT31;48512;48.552;9.380;2023-05-10T15:19:36;18.27;63.08
62464;SHT31;48512;48.552;9.380;2023-05-10T15:22:04;18.22;63.34
62464;SHT31;48512;48.552;9.380;2023-05-10T15:24:30;17.90;63.64
62464;SHT31;48512;48.552;9.380;2023-05-10T15:26:56;17.74;64.18
62464;SHT31;48512;48.552;9.380;2023-05-10T15:29:22;17.73;65.20
62464;SHT31;48512;48.552;9.380;2023-05-10T15:31:49;17.97;65.10
62464;SHT31;48512;48.552;9.380;2023-05-10T15:34:17;17.72;63.70
62464;SHT31;48512;48.552;9.380;2023-05-10T15:36:44;17.90;67.48
62464;SHT31;48512;48.552;9.380;2023-05-10T15:39:11;18.15;68.19
62464;SHT31;48512;48.552;9.380;2023-05-10T15:41:37;18.05;65.20
62464;SHT31;48512;48.552;9.380;2023-05-10T15:44:03;18.18;64.60
62464;SHT31;48512;48.552;9.380;2023-05-10T15:46:30;18.05;63.52
62464;SHT31;48512;48.552;9.380;2023-05-10T15:48:59;17.94;64.55
62464;SHT31;48512;48.552;9.380;2023-05-10T15:51:25;17.89;64.41
62464;SHT31;48512;48.552;9.380;2023-05-10T15:53:51;17.86;64.85
62464;SHT31;48512;48.552;9.380;2023-05-10T15:56:17;17.62;64.96
62464;SHT31;48512;48.552;9.380;2023-05-10T15:58:44;17.45;64.90